Time;durP1;ratioP1;P1;durP2;ratioP2;P2;SDS_P1;SDS_P2;PMS_P1;PMS_P2;Temp;Humidity;BMP_temperature;BMP_pressure;BME280_temperature;BME280_humidity;BME280_pressure;Samples;Min_cycle;Max_cycle;Signal;HPM_P1;HPM_P2
2024/02/28 00:00:16;;;;;;;20.07;14.30;;;10.20;99.90;;;;;;5054069;28;20615;-59
2024/02/28 00:02:43;;;;;;;16.73;13.10;;;10.10;99.90;;;;;;5053588;28;20214;-59
2024/02/28 00:05:09;;;;;;;18.63;13.43;;;10.10;99.90;;;;;;5053627;28;20288;-59
2024/02/28 00:07:36;;;;;;;18.70;14.40;;;10.20;99.90;;;;;;5054031;28;20230;-58
2024/02/28 00:10:04;;;;;;;16.57;13.40;;;10.20;99.90;;;;;;5053623;28;20225;-59
2024/02/28 00:12:31;;;;;;;19.83;14.67;;;10.30;99.90;;;;;;5053469;28;20204;-58
2024/02/28 00:14:58;;;;;;;20.53;14.73;;;10.20;99.90;;;;;;5053629;28;20233;-59
2024/02/28 00:17:26;;;;;;;21.40;14.30;;;10.20;99.90;;;;;;5053493;28;20228;-59
2024/02/28 00:19:53;;;;;;;18.60;13.73;;;10.20;99.90;;;;;;5053504;28;20727;-59
2024/02/28 00:22:20;;;;;;;18.47;14.27;;;10.20;99.90;;;;;;5053207;28;20205;-59
2024/02/28 00:24:47;;;;;;;20.33;14.97;;;10.00;99.90;;;;;;5053510;28;20224;-58
2024/02/28 00:27:14;;;;;;;20.13;14.13;;;9.90;99.90;;;;;;5053266;28;20709;-58
2024/02/28 00:29:40;;;;;;;19.10;14.83;;;9.80;99.90;;;;;;5053161;28;20591;-58
2024/02/28 00:32:07;;;;;;;20.27;15.33;;;9.80;99.90;;;;;;5052891;28;20217;-58
2024/02/28 00:34:35;;;;;;;20.90;14.60;;;9.90;99.90;;;;;;5053439;28;20205;-59
2024/02/28 00:37:02;;;;;;;22.40;15.43;;;9.90;99.90;;;;;;5053148;28;20671;-59
2024/02/28 00:39:28;;;;;;;21.20;15.70;;;9.90;99.90;;;;;;5053313;28;20202;-58
2024/02/28 00:41:55;;;;;;;18.93;14.47;;;10.10;99.90;;;;;;5052868;28;20202;-59
2024/02/28 00:44:22;;;;;;;20.97;15.17;;;10.10;99.90;;;;;;5053039;28;20201;-59
2024/02/28 00:46:48;;;;;;;20.83;15.33;;;10.10;99.90;;;;;;5053294;28;20204;-60
2024/02/28 00:49:15;;;;;;;20.80;15.43;;;10.00;99.90;;;;;;5053162;28;20259;-59
2024/02/28 00:51:43;;;;;;;22.00;16.03;;;10.00;99.90;;;;;;5052820;28;20229;-59
2024/02/28 00:54:10;;;;;;;20.90;15.87;;;10.10;99.90;;;;;;5052928;28;20255;-59
2024/02/28 00:56:36;;;;;;;19.97;15.50;;;10.10;99.90;;;;;;5052775;28;20230;-60
2024/02/28 00:59:03;;;;;;;22.67;15.20;;;10.20;99.90;;;;;;5051947;28;20209;-59
2024/02/28 01:01:30;;;;;;;20.67;15.00;;;10.20;99.90;;;;;;5052752;28;20289;-59
2024/02/28 01:03:56;;;;;;;20.53;15.10;;;10.20;99.90;;;;;;5052939;28;20605;-60
2024/02/28 01:06:23;;;;;;;18.53;14.63;;;10.10;99.90;;;;;;5052394;28;20229;-59
2024/02/28 01:08:51;;;;;;;21.77;15.53;;;10.10;99.90;;;;;;5052697;28;20263;-57
2024/02/28 01:11:18;;;;;;;21.53;15.13;;;10.00;99.90;;;;;;5044388;28;20226;-57
2024/02/28 01:13:44;;;;;;;21.27;14.87;;;10.00;99.90;;;;;;5052406;28;20205;-57
2024/02/28 01:16:11;;;;;;;20.10;15.80;;;10.00;99.90;;;;;;5052219;28;20229;-59
2024/02/28 01:18:38;;;;;;;20.03;14.53;;;10.00;99.90;;;;;;5052145;28;20209;-57
2024/02/28 01:21:04;;;;;;;19.80;14.77;;;9.80;99.90;;;;;;5052172;28;20623;-57
2024/02/28 01:23:31;;;;;;;19.07;14.43;;;9.80;99.90;;;;;;5052088;28;20582;-59
2024/02/28 01:26:03;;;;;;;18.77;15.03;;;9.60;99.90;;;;;;5052052;28;20221;-59
2024/02/28 01:28:29;;;;;;;20.17;14.10;;;9.60;99.90;;;;;;5052212;28;20233;-59
2024/02/28 01:30:56;;;;;;;18.83;14.30;;;9.50;99.90;;;;;;5051946;28;20221;-58
2024/02/28 01:33:23;;;;;;;18.73;13.87;;;9.40;99.90;;;;;;5051736;28;20204;-58
2024/02/28 01:35:49;;;;;;;18.20;14.67;;;9.40;99.90;;;;;;5052113;28;20221;-58
2024/02/28 01:38:16;;;;;;;18.90;14.57;;;9.40;99.90;;;;;;5051865;28;20202;-58
2024/02/28 01:40:45;;;;;;;20.40;14.60;;;9.40;99.90;;;;;;5051965;28;20751;-59
2024/02/28 01:43:14;;;;;;;19.03;14.83;;;9.40;99.90;;;;;;5051524;28;20577;-60
2024/02/28 01:45:41;;;;;;;18.70;14.20;;;9.30;99.90;;;;;;5051968;28;20584;-57
2024/02/28 01:48:10;;;;;;;19.10;14.27;;;9.30;99.90;;;;;;5051710;28;20725;-59
2024/02/28 01:50:37;;;;;;;22.67;14.73;;;9.20;99.90;;;;;;5051816;28;20213;-60
2024/02/28 01:53:04;;;;;;;20.73;14.77;;;9.20;99.90;;;;;;5051669;28;20297;-60
2024/02/28 01:55:31;;;;;;;18.47;14.43;;;9.20;99.90;;;;;;5051626;28;20710;-60
2024/02/28 01:57:58;;;;;;;19.20;14.40;;;9.10;99.90;;;;;;5051848;28;20210;-60
2024/02/28 02:00:28;;;;;;;19.30;15.13;;;9.20;99.90;;;;;;5051916;28;20248;-57
2024/02/28 02:02:55;;;;;;;21.80;15.23;;;9.20;99.90;;;;;;5051394;28;20630;-59
2024/02/28 02:05:22;;;;;;;18.70;14.43;;;9.20;99.90;;;;;;5051642;28;20226;-59
2024/02/28 02:07:49;;;;;;;20.50;14.33;;;9.20;99.90;;;;;;5051724;28;20210;-60
2024/02/28 02:10:16;;;;;;;20.30;14.80;;;9.10;99.90;;;;;;5051381;28;20221;-58
2024/02/28 02:12:43;;;;;;;21.20;15.13;;;9.10;99.90;;;;;;5051020;28;20564;-58
2024/02/28 02:15:10;;;;;;;19.53;14.47;;;9.10;99.90;;;;;;5051585;28;20673;-57
2024/02/28 02:17:38;;;;;;;18.10;13.67;;;9.20;99.90;;;;;;5051265;28;20690;-58
2024/02/28 02:20:06;;;;;;;19.90;14.73;;;9.20;99.90;;;;;;5051310;28;20678;-58
2024/02/28 02:22:35;;;;;;;22.60;15.60;;;9.20;99.90;;;;;;5051235;28;20307;-58
2024/02/28 02:25:04;;;;;;;19.37;13.93;;;9.20;99.90;;;;;;5051488;28;20252;-60
2024/02/28 02:27:30;;;;;;;19.10;13.97;;;9.10;99.90;;;;;;5051604;28;20688;-59
2024/02/28 02:29:57;;;;;;;19.87;14.37;;;9.10;99.90;;;;;;5051378;28;20255;-59
2024/02/28 02:32:24;;;;;;;23.10;15.57;;;9.30;99.90;;;;;;5051197;28;20210;-59
2024/02/28 02:34:51;;;;;;;19.30;14.37;;;9.30;99.90;;;;;;5051225;28;20644;-59
2024/02/28 02:37:17;;;;;;;20.37;15.50;;;9.20;99.90;;;;;;5051154;28;20210;-59
2024/02/28 02:39:45;;;;;;;22.10;15.63;;;9.20;99.90;;;;;;5051465;28;20197;-58
2024/02/28 02:42:14;;;;;;;22.57;17.03;;;9.30;99.90;;;;;;5051093;28;20205;-58
2024/02/28 02:44:41;;;;;;;21.97;16.17;;;9.30;99.90;;;;;;5051429;28;20245;-59
2024/02/28 02:47:08;;;;;;;21.83;15.60;;;9.30;99.90;;;;;;5051316;28;20206;-59
2024/02/28 02:49:34;;;;;;;23.27;16.03;;;9.50;99.90;;;;;;5051265;28;20206;-59
2024/02/28 02:52:01;;;;;;;21.30;15.60;;;9.50;99.90;;;;;;5051121;28;20222;-59
2024/02/28 02:54:28;;;;;;;22.53;15.60;;;9.60;99.90;;;;;;5051349;28;20206;-59
2024/02/28 02:56:56;;;;;;;21.80;16.47;;;9.60;99.90;;;;;;5051197;28;20217;-59
2024/02/28 02:59:22;;;;;;;20.40;14.77;;;9.70;99.90;;;;;;5051135;28;20251;-58
2024/02/28 03:01:50;;;;;;;19.77;14.97;;;9.70;99.90;;;;;;5050840;28;20290;-59
2024/02/28 03:04:17;;;;;;;19.50;14.93;;;9.50;99.90;;;;;;5050853;28;20209;-59
2024/02/28 03:06:43;;;;;;;20.50;15.40;;;9.40;99.90;;;;;;5051381;28;20210;-58
2024/02/28 03:09:10;;;;;;;19.27;14.33;;;9.30;99.90;;;;;;5051159;28;20214;-58
2024/02/28 03:11:37;;;;;;;20.77;15.40;;;9.20;99.90;;;;;;5050797;28;20244;-58
2024/02/28 03:14:05;;;;;;;19.67;15.03;;;9.20;99.90;;;;;;5051018;28;20210;-59
2024/02/28 03:16:31;;;;;;;21.53;15.70;;;9.20;99.90;;;;;;5050865;28;20230;-59
2024/02/28 03:18:58;;;;;;;21.67;15.33;;;9.20;99.90;;;;;;5050599;28;20206;-58
2024/02/28 03:21:23;;;;;;;22.90;16.70;;;9.20;99.90;;;;;;5051736;28;20244;-58
2024/02/28 03:23:50;;;;;;;20.83;16.13;;;9.20;99.90;;;;;;5054678;28;20202;-58
2024/02/28 03:26:17;;;;;;;21.40;15.30;;;9.20;99.90;;;;;;5054248;28;20221;-58
2024/02/28 03:28:43;;;;;;;23.63;15.97;;;9.30;99.90;;;;;;5054494;28;20202;-59
2024/02/28 03:31:12;;;;;;;20.27;15.20;;;9.40;99.90;;;;;;5054143;28;20280;-59
2024/02/28 03:33:38;;;;;;;21.63;16.10;;;9.50;99.90;;;;;;5054293;28;20229;-59
2024/02/28 03:36:05;;;;;;;20.67;15.77;;;9.50;99.90;;;;;;5054118;28;20719;-58
2024/02/28 03:38:32;;;;;;;21.77;16.53;;;9.60;99.90;;;;;;5054497;28;20201;-59
2024/02/28 03:40:59;;;;;;;21.70;16.17;;;9.70;99.90;;;;;;5054107;28;20674;-59
2024/02/28 03:43:25;;;;;;;21.30;15.73;;;9.70;99.90;;;;;;5054045;28;20201;-58
2024/02/28 03:45:52;;;;;;;22.80;16.57;;;9.70;99.90;;;;;;5053928;28;20764;-59
2024/02/28 03:48:20;;;;;;;21.43;15.83;;;9.70;99.90;;;;;;5054404;28;20197;-59
2024/02/28 03:50:47;;;;;;;24.20;16.60;;;9.70;99.90;;;;;;5054170;28;20295;-59
2024/02/28 03:53:13;;;;;;;24.20;16.67;;;9.60;99.90;;;;;;5054051;28;20250;-59
2024/02/28 03:55:40;;;;;;;20.47;15.93;;;9.60;99.90;;;;;;5053945;28;20221;-59
2024/02/28 03:58:08;;;;;;;22.57;16.70;;;9.70;99.90;;;;;;5054018;28;20206;-58
2024/02/28 04:00:35;;;;;;;19.57;15.47;;;9.60;99.90;;;;;;5054015;28;20212;-59
2024/02/28 04:03:02;;;;;;;22.80;16.30;;;9.70;99.90;;;;;;5053785;28;20209;-59
2024/02/28 04:05:30;;;;;;;24.87;16.40;;;9.70;99.90;;;;;;5053860;28;20777;-60
2024/02/28 04:07:57;;;;;;;21.93;16.17;;;9.80;99.90;;;;;;5053634;28;20579;-60
2024/02/28 04:10:24;;;;;;;21.53;16.13;;;9.80;99.90;;;;;;5053744;28;20586;-60
2024/02/28 04:12:50;;;;;;;23.07;15.73;;;9.80;99.90;;;;;;5053337;28;20225;-60
2024/02/28 04:15:17;;;;;;;26.53;18.73;;;9.80;99.90;;;;;;5053679;28;20324;-60
2024/02/28 04:17:44;;;;;;;23.77;15.77;;;9.80;99.90;;;;;;5053762;28;20259;-60
2024/02/28 04:20:11;;;;;;;23.07;16.40;;;9.80;99.90;;;;;;5053561;28;20209;-59
2024/02/28 04:22:39;;;;;;;21.77;16.13;;;9.80;99.90;;;;;;5053333;28;20206;-60
2024/02/28 04:25:07;;;;;;;21.13;15.77;;;9.80;99.90;;;;;;5053395;28;20719;-60
2024/02/28 04:27:34;;;;;;;22.30;15.67;;;9.70;99.90;;;;;;5053289;28;20201;-61
2024/02/28 04:30:01;;;;;;;21.43;15.13;;;9.60;99.90;;;;;;5053506;28;20286;-60
2024/02/28 04:32:27;;;;;;;22.17;15.73;;;9.60;99.90;;;;;;5052491;28;20218;-60
2024/02/28 04:34:54;;;;;;;23.20;16.70;;;9.50;99.90;;;;;;5053059;28;20772;-61
2024/02/28 04:37:21;;;;;;;21.67;16.47;;;9.50;99.90;;;;;;5053163;28;20296;-60
2024/02/28 04:39:49;;;;;;;24.37;16.60;;;9.50;99.90;;;;;;5053099;28;20221;-60
2024/02/28 04:42:16;;;;;;;21.70;15.73;;;9.40;99.90;;;;;;5053021;28;20209;-60
2024/02/28 04:44:43;;;;;;;22.40;16.70;;;9.40;99.90;;;;;;5053033;28;20249;-60
2024/02/28 04:47:10;;;;;;;22.97;17.03;;;9.20;99.90;;;;;;5053137;28;20209;-60
2024/02/28 04:49:38;;;;;;;22.90;17.33;;;9.10;99.90;;;;;;5053159;28;20202;-60
2024/02/28 04:52:05;;;;;;;24.53;17.37;;;9.10;99.90;;;;;;5052541;28;20225;-60
2024/02/28 04:54:31;;;;;;;23.73;16.23;;;9.00;99.90;;;;;;5052781;28;20206;-60
2024/02/28 04:56:59;;;;;;;23.73;16.40;;;8.90;99.90;;;;;;5052923;28;20212;-60
2024/02/28 04:59:26;;;;;;;22.20;16.63;;;8.90;99.90;;;;;;5052880;28;20202;-61
2024/02/28 05:01:53;;;;;;;24.30;16.33;;;8.90;99.90;;;;;;5052605;28;20220;-60
2024/02/28 05:04:20;;;;;;;24.97;16.80;;;8.90;99.90;;;;;;5052490;28;20202;-59
2024/02/28 05:06:47;;;;;;;24.10;16.67;;;8.80;99.90;;;;;;5052663;28;20206;-59
2024/02/28 05:09:14;;;;;;;24.40;17.40;;;8.90;99.90;;;;;;5052211;28;20737;-59
2024/02/28 05:11:41;;;;;;;21.70;16.07;;;8.90;99.90;;;;;;5052150;28;20821;-60
2024/02/28 05:14:11;;;;;;;23.20;16.23;;;8.80;99.90;;;;;;5052473;28;20206;-58
2024/02/28 05:16:37;;;;;;;23.37;16.60;;;8.70;99.90;;;;;;5052498;28;20762;-60
2024/02/28 05:19:05;;;;;;;22.93;16.87;;;8.60;99.90;;;;;;5052423;28;20604;-59
2024/02/28 05:21:31;;;;;;;23.80;17.47;;;8.70;99.90;;;;;;5052069;28;20229;-59
2024/02/28 05:23:58;;;;;;;23.93;16.50;;;8.80;99.90;;;;;;5052100;28;20650;-59
2024/02/28 05:26:25;;;;;;;22.43;16.23;;;9.00;99.90;;;;;;5043924;28;20764;-59
2024/02/28 05:28:51;;;;;;;20.63;15.37;;;9.10;99.90;;;;;;5052171;28;20663;-59
2024/02/28 05:31:24;;;;;;;21.50;16.07;;;9.20;99.90;;;;;;5051665;28;20713;-59
2024/02/28 05:33:51;;;;;;;23.03;16.20;;;9.20;99.90;;;;;;5052046;28;20201;-61
2024/02/28 05:36:18;;;;;;;20.63;15.60;;;9.10;99.90;;;;;;5051812;28;20249;-61
2024/02/28 05:38:45;;;;;;;22.20;16.47;;;8.90;99.90;;;;;;5052065;28;20620;-61
2024/02/28 05:41:12;;;;;;;23.20;15.97;;;8.80;99.90;;;;;;5051960;28;20206;-58
2024/02/28 05:43:39;;;;;;;25.07;17.20;;;8.80;99.90;;;;;;5051421;28;20225;-61
2024/02/28 05:46:05;;;;;;;23.23;17.00;;;9.00;99.90;;;;;;5051917;28;20256;-61
2024/02/28 05:48:33;;;;;;;22.90;15.77;;;8.90;99.90;;;;;;5051694;28;20202;-60
2024/02/28 05:51:01;;;;;;;22.93;15.97;;;8.80;99.90;;;;;;5051721;28;20202;-60
2024/02/28 05:53:32;;;;;;;24.87;17.00;;;8.90;99.90;;;;;;5051558;28;20202;-59
2024/02/28 05:55:59;;;;;;;21.40;14.93;;;9.10;99.90;;;;;;5051700;28;20236;-60
2024/02/28 05:58:26;;;;;;;16.47;13.37;;;9.20;99.90;;;;;;5051504;28;20208;-58
2024/02/28 06:00:52;;;;;;;20.93;13.27;;;9.40;99.90;;;;;;5051611;28;20301;-59
2024/02/28 06:03:19;;;;;;;17.83;12.33;;;9.50;99.90;;;;;;5051023;28;20208;-59
2024/02/28 06:05:48;;;;;;;17.23;12.40;;;9.60;99.90;;;;;;5050929;28;20221;-59
2024/02/28 06:08:14;;;;;;;17.17;13.07;;;9.80;99.90;;;;;;5051365;28;20216;-59
2024/02/28 06:10:42;;;;;;;17.67;13.17;;;9.80;99.90;;;;;;5051458;28;20197;-60
2024/02/28 06:13:08;;;;;;;16.70;12.80;;;9.70;99.90;;;;;;5050604;28;20729;-60
2024/02/28 06:15:35;;;;;;;15.57;12.30;;;9.70;99.90;;;;;;5051511;28;20232;-60
2024/02/28 06:18:02;;;;;;;16.53;12.10;;;9.80;99.90;;;;;;5051359;28;20214;-60
2024/02/28 06:20:29;;;;;;;15.47;11.80;;;9.80;99.90;;;;;;5051428;28;20715;-60
2024/02/28 06:22:57;;;;;;;17.60;12.43;;;9.80;99.90;;;;;;5051240;28;20206;-60
2024/02/28 06:25:24;;;;;;;15.40;12.47;;;9.80;99.90;;;;;;5051076;28;20217;-60
2024/02/28 06:27:51;;;;;;;16.93;12.30;;;9.80;99.90;;;;;;5051351;28;20205;-60
2024/02/28 06:30:18;;;;;;;17.13;12.40;;;9.70;99.90;;;;;;5051161;28;20577;-59
2024/02/28 06:32:44;;;;;;;16.73;13.17;;;9.50;99.90;;;;;;5051108;28;20275;-60
2024/02/28 06:35:11;;;;;;;16.17;12.20;;;9.20;99.90;;;;;;5051427;28;20225;-59
2024/02/28 06:37:38;;;;;;;17.77;12.47;;;9.00;99.90;;;;;;5051419;28;20201;-60
2024/02/28 06:40:08;;;;;;;18.03;12.50;;;8.90;99.90;;;;;;5051192;28;20206;-59
2024/02/28 06:42:36;;;;;;;19.50;13.50;;;9.00;99.90;;;;;;5051089;28;20193;-61
2024/02/28 06:45:03;;;;;;;17.33;13.13;;;8.90;99.90;;;;;;5050782;28;20256;-60
2024/02/28 06:47:32;;;;;;;17.23;12.10;;;9.00;99.90;;;;;;5051075;28;20262;-59
2024/02/28 06:49:59;;;;;;;19.63;13.97;;;8.80;99.90;;;;;;5051055;28;20267;-60
2024/02/28 06:52:25;;;;;;;19.47;13.57;;;8.90;99.90;;;;;;5050763;28;20221;-59
2024/02/28 06:54:52;;;;;;;17.97;13.40;;;9.00;99.90;;;;;;5050929;28;20283;-59
2024/02/28 06:57:20;;;;;;;16.30;12.73;;;9.00;99.90;;;;;;5053777;28;20292;-60
2024/02/28 06:59:47;;;;;;;17.47;12.67;;;9.00;99.90;;;;;;5055010;28;20288;-60
2024/02/28 07:02:13;;;;;;;19.77;13.77;;;9.00;99.90;;;;;;5054749;28;20206;-58
2024/02/28 07:04:40;;;;;;;18.83;12.20;;;9.00;99.90;;;;;;5055026;28;20596;-60
2024/02/28 07:07:06;;;;;;;16.73;12.60;;;9.10;99.90;;;;;;5054795;28;20202;-60
2024/02/28 07:09:33;;;;;;;17.80;13.93;;;9.20;99.90;;;;;;5055184;28;20312;-60
2024/02/28 07:12:00;;;;;;;18.93;13.30;;;9.30;99.90;;;;;;5054445;28;20280;-59
2024/02/28 07:14:28;;;;;;;21.70;15.90;;;9.50;99.90;;;;;;5046502;28;20223;-59
2024/02/28 07:16:55;;;;;;;17.40;12.77;;;9.50;99.90;;;;;;5054972;28;20308;-60
2024/02/28 07:19:22;;;;;;;20.10;14.00;;;9.70;99.90;;;;;;5054768;28;20213;-59
2024/02/28 07:21:48;;;;;;;20.93;15.27;;;9.70;99.90;;;;;;5054764;28;20798;-60
2024/02/28 07:24:15;;;;;;;22.27;13.90;;;9.80;99.90;;;;;;5054618;28;20610;-60
2024/02/28 07:26:42;;;;;;;18.33;13.40;;;9.80;99.90;;;;;;5054420;28;20206;-60
2024/02/28 07:29:09;;;;;;;18.13;13.17;;;9.60;99.90;;;;;;5054345;28;20692;-59
2024/02/28 07:31:36;;;;;;;17.80;12.47;;;9.50;99.90;;;;;;5054508;28;20254;-59
2024/02/28 07:34:04;;;;;;;17.77;13.63;;;9.50;99.90;;;;;;5054571;28;20206;-61
2024/02/28 07:36:31;;;;;;;16.30;13.40;;;9.50;99.90;;;;;;5054496;28;20231;-60
2024/02/28 07:38:57;;;;;;;22.20;15.90;;;9.60;99.90;;;;;;5054495;28;20214;-63
2024/02/28 07:41:24;;;;;;;18.47;13.73;;;9.80;99.90;;;;;;5054268;28;20205;-62
2024/02/28 07:43:51;;;;;;;15.57;11.77;;;9.90;99.90;;;;;;5054526;28;20295;-61
2024/02/28 07:46:17;;;;;;;18.63;12.17;;;10.00;99.90;;;;;;5054017;28;20237;-62
2024/02/28 07:48:45;;;;;;;14.57;11.03;;;10.10;99.90;;;;;;5054045;28;20260;-62
2024/02/28 07:51:12;;;;;;;14.47;11.07;;;10.10;99.90;;;;;;5053904;28;20263;-62
2024/02/28 07:53:39;;;;;;;14.13;11.13;;;10.30;99.90;;;;;;5053588;28;20267;-61
2024/02/28 07:56:06;;;;;;;37.83;25.50;;;10.40;99.90;;;;;;5053910;28;20298;-62
2024/02/28 07:58:33;;;;;;;17.30;13.37;;;10.50;99.90;;;;;;5054041;28;20721;-62
2024/02/28 08:00:59;;;;;;;15.40;11.43;;;10.50;99.90;;;;;;5054067;28;20235;-62
2024/02/28 08:03:26;;;;;;;14.30;11.77;;;10.60;99.90;;;;;;5053791;28;20202;-62
2024/02/28 08:05:55;;;;;;;16.53;11.67;;;10.60;99.90;;;;;;5053469;28;20229;-62
2024/02/28 08:08:21;;;;;;;16.13;11.73;;;10.60;99.90;;;;;;5053120;28;20283;-62
2024/02/28 08:10:48;;;;;;;18.40;11.57;;;10.60;99.90;;;;;;5053590;28;20210;-62
2024/02/28 08:13:15;;;;;;;15.20;11.80;;;10.60;99.90;;;;;;5053293;28;20231;-62
2024/02/28 08:15:42;;;;;;;15.53;11.30;;;10.60;99.90;;;;;;5053640;28;20225;-61
2024/02/28 08:18:10;;;;;;;15.30;11.33;;;10.60;99.90;;;;;;5053351;28;20205;-62
2024/02/28 08:20:37;;;;;;;17.43;12.00;;;10.60;99.90;;;;;;5053450;28;20240;-61
2024/02/28 08:23:05;;;;;;;13.17;11.33;;;10.60;99.90;;;;;;5053154;28;20209;-61
2024/02/28 08:25:32;;;;;;;16.93;11.73;;;10.60;99.90;;;;;;5053220;28;20217;-62
2024/02/28 08:27:59;;;;;;;15.53;11.90;;;10.60;99.90;;;;;;5053199;28;20744;-62
2024/02/28 08:30:26;;;;;;;13.67;10.70;;;10.60;99.90;;;;;;5053138;28;20208;-62
2024/02/28 08:32:52;;;;;;;18.10;12.47;;;10.60;99.90;;;;;;5052962;28;20300;-62
2024/02/28 08:35:19;;;;;;;15.83;12.27;;;10.60;99.90;;;;;;5052897;28;20225;-62
2024/02/28 08:37:46;;;;;;;18.10;13.40;;;10.60;99.90;;;;;;5053231;28;20206;-62
2024/02/28 08:40:14;;;;;;;16.70;11.83;;;10.60;99.90;;;;;;5052800;28;20205;-62
2024/02/28 08:42:41;;;;;;;15.03;11.80;;;10.70;99.90;;;;;;5052582;28;20694;-62
2024/02/28 08:45:09;;;;;;;16.83;12.03;;;10.40;99.90;;;;;;5052572;28;20711;-61
2024/02/28 08:47:35;;;;;;;16.00;12.40;;;10.20;99.90;;;;;;5052837;28;20297;-62
2024/02/28 08:50:02;;;;;;;17.97;12.80;;;9.90;99.90;;;;;;5052971;28;20205;-61
2024/02/28 08:52:29;;;;;;;16.93;12.93;;;9.70;99.90;;;;;;5052637;28;20233;-61
2024/02/28 08:54:55;;;;;;;19.27;12.27;;;9.50;99.90;;;;;;5052681;28;20221;-63
2024/02/28 08:57:24;;;;;;;17.50;12.40;;;9.40;99.90;;;;;;5052343;28;20220;-62
2024/02/28 08:59:50;;;;;;;15.80;12.33;;;9.40;99.90;;;;;;5052570;28;20284;-62
2024/02/28 09:02:17;;;;;;;17.23;13.07;;;9.40;99.90;;;;;;5052076;28;20256;-63
2024/02/28 09:04:44;;;;;;;19.53;12.43;;;9.50;99.90;;;;;;5052066;28;20782;-63
2024/02/28 09:07:11;;;;;;;16.60;12.27;;;9.80;99.90;;;;;;5052441;28;20214;-63
2024/02/28 09:09:43;;;;;;;18.37;12.43;;;9.90;99.90;;;;;;5052328;28;20224;-62
2024/02/28 09:12:09;;;;;;;17.90;13.30;;;10.00;99.90;;;;;;5051983;28;20212;-62
2024/02/28 09:14:38;;;;;;;22.00;15.97;;;9.90;99.90;;;;;;5052041;28;20202;-62
2024/02/28 09:17:05;;;;;;;20.80;14.27;;;9.90;99.90;;;;;;5052065;28;20756;-63
2024/02/28 09:19:32;;;;;;;20.50;14.40;;;9.80;99.90;;;;;;5043805;28;20197;-63
2024/02/28 09:21:59;;;;;;;20.60;13.97;;;9.80;99.90;;;;;;5052110;28;20213;-63
2024/02/28 09:24:26;;;;;;;21.27;14.50;;;9.70;99.90;;;;;;5052103;28;20206;-62
2024/02/28 09:26:53;;;;;;;19.00;13.40;;;9.60;99.90;;;;;;5052216;28;20198;-62
2024/02/28 09:29:20;;;;;;;21.43;14.40;;;9.70;99.90;;;;;;5051866;28;20202;-65
2024/02/28 09:31:48;;;;;;;22.30;15.17;;;9.90;99.90;;;;;;5051771;28;20202;-62
2024/02/28 09:34:14;;;;;;;20.87;14.63;;;10.10;99.90;;;;;;5051800;28;20313;-62
2024/02/28 09:36:42;;;;;;;19.23;14.37;;;10.20;99.90;;;;;;5052038;28;20229;-62
2024/02/28 09:39:08;;;;;;;21.07;14.20;;;10.40;99.90;;;;;;5052073;28;20233;-62
2024/02/28 09:41:35;;;;;;;21.70;15.07;;;10.40;99.90;;;;;;5051793;28;20202;-63
2024/02/28 09:44:03;;;;;;;22.10;15.00;;;10.40;99.90;;;;;;5051722;28;20205;-62
2024/02/28 09:46:31;;;;;;;23.00;14.83;;;10.30;99.90;;;;;;5051881;28;20313;-62
2024/02/28 09:49:00;;;;;;;20.33;15.23;;;10.30;99.90;;;;;;5051974;28;20209;-62
2024/02/28 09:51:27;;;;;;;26.33;15.87;;;10.30;99.90;;;;;;5051306;28;20516;-62
2024/02/28 09:53:54;;;;;;;23.60;15.57;;;10.40;99.90;;;;;;5051732;28;20221;-62
2024/02/28 09:56:23;;;;;;;24.03;15.27;;;10.50;99.90;;;;;;5051540;28;20291;-62
2024/02/28 09:58:50;;;;;;;23.90;15.47;;;10.50;99.90;;;;;;5051762;28;20275;-62
2024/02/28 10:01:17;;;;;;;22.73;14.67;;;10.50;99.90;;;;;;5051664;28;20206;-60
2024/02/28 10:03:46;;;;;;;21.67;15.00;;;10.50;99.90;;;;;;5051600;28;20243;-62
2024/02/28 10:06:15;;;;;;;26.43;16.93;;;10.50;99.90;;;;;;5051583;28;20236;-62
2024/02/28 10:08:42;;;;;;;22.20;15.97;;;10.50;99.90;;;;;;5051579;28;20679;-63
2024/02/28 10:11:09;;;;;;;25.77;16.53;;;10.50;99.90;;;;;;5051455;28;20683;-62
2024/02/28 10:13:37;;;;;;;24.37;16.13;;;10.40;99.90;;;;;;5051392;28;20221;-61
2024/02/28 10:16:07;;;;;;;23.40;14.60;;;10.50;99.90;;;;;;5051579;28;20229;-61
2024/02/28 10:18:34;;;;;;;23.97;16.07;;;10.50;99.90;;;;;;5043528;28;20201;-61
2024/02/28 10:21:00;;;;;;;23.43;15.60;;;10.60;99.90;;;;;;5051437;28;20232;-62
2024/02/28 10:23:28;;;;;;;27.93;17.20;;;10.60;99.90;;;;;;5051023;28;20485;-62
2024/02/28 10:25:55;;;;;;;27.40;15.97;;;10.60;99.90;;;;;;5051539;28;20511;-62
2024/02/28 10:28:22;;;;;;;23.17;15.17;;;10.70;99.90;;;;;;5051460;28;20216;-61
2024/02/28 10:30:49;;;;;;;23.30;14.57;;;10.80;99.90;;;;;;5051918;28;20205;-61
2024/02/28 10:33:16;;;;;;;22.00;14.53;;;10.60;99.90;;;;;;5055304;28;20724;-61
2024/02/28 10:35:44;;;;;;;23.40;14.77;;;10.70;99.90;;;;;;5055527;28;20258;-62
2024/02/28 10:38:11;;;;;;;26.43;15.57;;;10.60;99.90;;;;;;5055017;28;20296;-61
2024/02/28 10:40:41;;;;;;;21.47;14.63;;;10.60;99.90;;;;;;5055552;28;20266;-62
2024/02/28 10:43:09;;;;;;;21.90;14.53;;;10.50;99.90;;;;;;5055141;28;20335;-62
2024/02/28 10:45:37;;;;;;;19.63;13.93;;;10.10;99.90;;;;;;5047347;28;20649;-61
2024/02/28 10:48:05;;;;;;;25.27;16.07;;;10.00;99.90;;;;;;5055363;28;20514;-61
2024/02/28 10:50:32;;;;;;;48.97;26.93;;;10.10;99.90;;;;;;5054868;28;20201;-62
2024/02/28 10:53:02;;;;;;;57.90;28.37;;;10.20;99.90;;;;;;5054503;28;20225;-62
2024/02/28 10:55:33;;;;;;;36.90;23.80;;;10.30;99.90;;;;;;5053777;28;20458;-63
2024/02/28 10:58:04;;;;;;;19.53;14.10;;;10.40;99.90;;;;;;5055245;28;20292;-62
2024/02/28 11:00:32;;;;;;;18.27;13.03;;;10.30;99.90;;;;;;5054678;28;20631;-62
2024/02/28 11:03:00;;;;;;;19.87;13.30;;;10.30;99.90;;;;;;5054704;28;20282;-61
2024/02/28 11:05:36;;;;;;;20.27;13.27;;;10.20;99.90;;;;;;5054436;28;20230;-63
2024/02/28 11:08:03;;;;;;;19.77;13.33;;;10.10;99.90;;;;;;5054988;28;20212;-63
2024/02/28 11:10:33;;;;;;;19.60;13.10;;;9.90;99.90;;;;;;5054531;28;20687;-63
2024/02/28 11:12:59;;;;;;;20.33;12.87;;;9.90;99.90;;;;;;5054262;28;20206;-63
2024/02/28 11:15:28;;;;;;;17.43;12.00;;;10.10;99.90;;;;;;5054486;28;20234;-62
2024/02/28 11:17:54;;;;;;;19.57;13.57;;;10.00;99.90;;;;;;5054575;28;20229;-62
2024/02/28 11:20:22;;;;;;;19.37;12.33;;;9.80;99.90;;;;;;5054587;28;20209;-63
2024/02/28 11:22:49;;;;;;;20.27;12.93;;;9.90;99.90;;;;;;5054394;28;20655;-62
2024/02/28 11:25:16;;;;;;;19.07;12.47;;;10.10;99.90;;;;;;5054402;28;20255;-63
2024/02/28 11:27:49;;;;;;;19.97;12.37;;;10.10;99.90;;;;;;5054092;28;20198;-63
2024/02/28 11:30:15;;;;;;;21.63;13.20;;;10.10;99.90;;;;;;5054186;28;20206;-63
2024/02/28 11:32:44;;;;;;;17.50;12.27;;;10.00;99.90;;;;;;5054095;28;20587;-63
2024/02/28 11:35:11;;;;;;;17.40;11.60;;;10.00;99.90;;;;;;5054330;28;20308;-63
2024/02/28 11:37:39;;;;;;;18.67;12.37;;;9.90;99.90;;;;;;5054430;28;20233;-63
2024/02/28 11:40:09;;;;;;;19.43;12.57;;;10.00;99.90;;;;;;5054278;28;20216;-62
2024/02/28 11:42:36;;;;;;;18.70;11.73;;;10.00;99.90;;;;;;5045301;28;20288;-62
2024/02/28 11:45:05;;;;;;;22.63;15.33;;;10.10;99.90;;;;;;5053804;28;20603;-62
2024/02/28 11:47:32;;;;;;;22.67;13.10;;;10.30;99.90;;;;;;5054224;28;20294;-63
2024/02/28 11:50:01;;;;;;;19.07;12.30;;;10.50;99.90;;;;;;5054074;28;20210;-63
2024/02/28 11:52:28;;;;;;;19.07;12.77;;;10.50;99.90;;;;;;5053577;28;20255;-63
2024/02/28 11:54:55;;;;;;;21.10;13.80;;;10.90;99.90;;;;;;5053862;28;20228;-63
2024/02/28 11:57:22;;;;;;;19.40;12.33;;;11.20;99.90;;;;;;5053695;28;20202;-60
2024/02/28 11:59:49;;;;;;;17.87;12.00;;;11.30;99.90;;;;;;5053434;28;20213;-61
2024/02/28 12:02:16;;;;;;;21.10;13.63;;;11.50;99.90;;;;;;5053297;28;20298;-61
2024/02/28 12:04:43;;;;;;;20.17;13.20;;;11.60;99.90;;;;;;5050646;28;20676;-63
2024/02/28 12:07:11;;;;;;;16.27;11.70;;;11.90;99.90;;;;;;5052882;28;20209;-64
2024/02/28 12:09:38;;;;;;;19.10;12.40;;;12.00;99.90;;;;;;5053548;28;20582;-63
2024/02/28 12:12:08;;;;;;;18.37;13.13;;;11.80;99.90;;;;;;5053070;28;20279;-63
2024/02/28 12:14:38;;;;;;;17.77;12.07;;;11.70;99.90;;;;;;5053382;28;20232;-64
2024/02/28 12:17:05;;;;;;;17.97;13.00;;;11.80;99.90;;;;;;5046013;28;20305;-63
2024/02/28 12:19:31;;;;;;;15.93;11.37;;;11.80;99.90;;;;;;5052827;28;20204;-60
2024/02/28 12:21:59;;;;;;;18.23;11.77;;;12.00;99.90;;;;;;5053021;28;20684;-61
2024/02/28 12:24:27;;;;;;;16.37;11.27;;;12.20;99.90;;;;;;5053004;28;20284;-61
2024/02/28 12:26:54;;;;;;;18.03;11.27;;;12.30;99.90;;;;;;5053070;28;20595;-62
2024/02/28 12:29:21;;;;;;;19.67;12.70;;;12.30;99.90;;;;;;5053297;28;20209;-62
2024/02/28 12:31:47;;;;;;;18.50;12.17;;;12.30;99.90;;;;;;5052700;28;20667;-62